Latest Weather Observations for Mount Hotham Airport

IDV60801

Issued at 12:34 pm EDT Friday 9 December 2016 (issued every 30 minutes, with the page automatically refreshed every 10 minutes)

About weather observations | Map of weather stations | Latest weather observations for VIC | Other Formats
Station Details ID: 083055 Name: MOUNT HOTHAM AIRPORT Lat: -37.05 Lon: 147.33 Height: 1295.4 m
Data from the previous 72 hours. | See also: Recent months at Mount Hotham Airport
Date/Time
EDT
Temp
°C
App
Temp
°C
Dew
Point
°C
Rel
Hum
%
Delta-T
°C
Wind Press
QNH
hPa
Press
MSL
hPa
Rain since
9am
mm
Dir  Spd
km/h
Gust
km/h
Spd
kts
Gust
kts
09/12:30pm 9.9 4.4 1.8 57 3.7 SSW 20 30 11 16 1014.3 - 0.0
09/12:00pm 9.0 3.5 1.7 60 3.3 SW 20 30 11 16 1014.0 1011.6 0.0
09/11:30am 8.1 3.4 0.8 60 3.2 SW 15 24 8 13 1013.6 - 0.0
09/11:00am 7.3 1.7 -0.2 59 3.2 SW 19 33 10 18 1013.1 - 0.0
09/10:30am 6.4 0.7 -0.8 60 3.0 WSW 19 28 10 15 1012.7 - 0.0
09/10:00am 6.3 1.1 0.0 64 2.7 WSW 17 32 9 17 1012.2 - 0.0
09/09:30am 6.4 2.4 0.5 66 2.5 WSW 11 22 6 12 1011.9 - 0.0
09/09:00am 5.1 0.2 -0.7 66 2.4 WSW 15 30 8 16 1011.4 1008.9 16.4
09/08:30am 4.7 -1.1 -0.3 70 2.1 SW 20 32 11 17 1010.5 - 16.4
09/08:00am 3.3 -3.0 -1.1 73 1.7 SW 22 41 12 22 1010.0 - 16.4
09/07:30am 3.4 -1.9 -0.4 76 1.5 WSW 17 30 9 16 1009.5 - 16.4
09/07:00am 3.7 -1.9 -0.1 76 1.6 SSW 19 28 10 15 1008.9 - 16.4
09/06:30am 3.2 -0.8 0.8 84 1.0 SW 11 19 6 10 1008.3 - 16.4
09/06:00am 3.3 -0.4 0.2 80 1.3 SW 9 15 5 8 1007.8 1005.2 16.4
09/05:30am 3.4 -1.1 -0.1 78 1.4 W 13 22 7 12 1007.1 - 16.4
09/05:00am 3.6 0.0 0.7 81 1.2 WSW 9 20 5 11 1006.6 - 16.4
09/04:30am 3.6 -0.5 0.1 78 1.4 W 11 17 6 9 1006.0 - 16.4
09/04:00am 3.8 -1.3 0.5 79 1.4 W 17 24 9 13 1005.8 - 16.4
09/03:30am 4.1 -1.3 1.5 83 1.1 WSW 19 32 10 17 1005.4 - 16.4
09/03:00am 4.6 -0.7 2.0 83 1.1 WSW 19 30 10 16 1005.0 1002.2 16.4
09/02:30am 4.6 -0.2 2.6 87 0.9 WSW 17 28 9 15 1005.0 - 16.4
09/02:00am 4.9 -0.7 3.2 89 0.8 W 22 33 12 18 1005.2 - 16.4
09/01:30am 5.3 2.4 4.4 94 0.4 W 9 19 5 10 1005.2 - 16.4
09/01:00am 5.9 3.2 3.7 86 1.0 W 7 13 4 7 1005.1 - 15.4
09/12:30am 5.9 2.8 3.4 84 1.1 W 9 19 5 10 1005.1 - 15.4
09/12:00am 5.8 1.5 3.5 85 1.1 W 15 26 8 14 1005.1 1002.4 15.4
 
Date/Time
EDT
Temp
°C
App
Temp
°C
Dew
Point
°C
Rel
Hum
%
Delta-T
°C
Wind Press
QNH
hPa
Press
MSL
hPa
Rain since
9am
mm
Dir  Spd
km/h
Gust
km/h
Spd
kts
Gust
kts
08/11:30pm 6.0 1.0 3.7 85 1.1 W 19 32 10 17 1004.9 - 15.4
08/11:00pm 5.8 1.3 4.0 88 0.8 W 17 28 9 15 1005.0 - 15.4
08/10:30pm 5.8 1.6 4.0 88 0.8 W 15 22 8 12 1005.2 - 15.4
08/10:00pm 6.0 1.5 4.3 89 0.8 WNW 17 28 9 15 1005.1 - 15.4
08/09:30pm 7.6 4.3 4.6 81 1.4 W 11 20 6 11 1005.0 - 13.8
08/09:00pm 7.5 2.9 3.9 78 1.7 WNW 17 26 9 14 1004.1 1001.3 13.8
08/08:30pm 7.4 3.2 3.8 78 1.7 W 15 26 8 14 1003.8 - 13.8
08/08:00pm 8.1 2.6 4.1 76 1.9 W 22 35 12 19 1003.2 - 13.8
08/07:30pm 8.7 3.9 4.7 76 1.9 W 19 39 10 21 1003.0 - 13.8
08/07:00pm 8.9 4.0 4.9 76 1.9 W 20 37 11 20 1002.7 - 13.8
08/06:30pm 8.9 2.9 5.1 77 1.8 WNW 26 41 14 22 1002.1 - 13.8
08/06:10pm 8.8 2.5 5.9 82 1.4 W 28 50 15 27 1001.8 - 13.8
08/06:07pm 8.8 2.5 5.9 82 1.4 W 28 50 15 27 1001.8 - 13.8
08/06:00pm 8.7 3.3 6.2 84 1.2 W 24 35 13 19 1001.5 998.6 13.8
08/05:30pm 7.8 2.5 6.7 93 0.5 WNW 24 39 13 21 1001.2 - 13.8
08/05:19pm 7.9 1.9 7.0 94 0.5 NW 28 46 15 25 1002.0 - 13.6
08/05:16pm 7.9 1.9 7.0 94 0.5 NW 28 46 15 25 1002.0 - 13.6
08/05:07pm 9.1 3.8 8.5 96 0.3 WNW 26 39 14 21 1001.6 - 13.2
08/05:04pm 9.1 3.8 8.5 96 0.3 WNW 26 39 14 21 1001.6 - 13.2
08/05:00pm 9.0 3.7 8.4 96 0.3 WNW 26 35 14 19 1001.6 - 13.2
08/04:53pm 9.2 3.1 8.3 94 0.5 W 30 46 16 25 1001.3 - 12.6
08/04:50pm 9.2 3.1 8.3 94 0.5 W 30 46 16 25 1001.3 - 12.6
08/04:45pm 9.9 4.4 9.1 95 0.4 W 28 46 15 25 1001.2 - 12.0
08/04:32pm 11.3 6.7 11.1 99 0.1 NW 26 37 14 20 1000.8 - 11.0
08/04:30pm 11.3 6.3 11.1 99 0.1 NW 28 43 15 23 1000.7 - 11.0
08/04:29pm 11.3 6.7 11.1 99 0.1 NW 26 37 14 20 1000.8 - 11.0
08/04:17pm 11.3 6.0 11.1 99 0.1 NW 30 46 16 25 1000.9 - 10.4
08/04:14pm 11.3 6.0 11.1 99 0.1 NW 30 46 16 25 1000.9 - 10.4
08/04:10pm 11.3 6.0 11.1 99 0.1 NW 30 48 16 26 1000.8 - 10.0
08/04:07pm 11.3 6.0 11.1 99 0.1 NW 30 48 16 26 1000.8 - 10.0
08/04:00pm 11.6 5.0 11.4 99 0.1 NW 37 54 20 29 1001.0 - 9.6
08/03:46pm 11.9 3.1 11.1 95 0.4 NW 48 78 26 42 1001.3 - 8.4
08/03:43pm 11.9 3.1 11.1 95 0.4 NW 48 78 26 42 1001.3 - 8.4
08/03:42pm 12.0 3.2 10.9 93 0.6 NW 48 67 26 36 1001.0 - 8.0
08/03:39pm 12.0 3.2 10.9 93 0.6 NW 48 67 26 36 1001.0 - 8.0
08/03:30pm 12.5 4.6 10.9 90 0.9 NW 43 65 23 35 1000.7 - 7.8
08/03:28pm 12.3 4.2 10.9 91 0.8 NW 44 87 24 47 1000.8 - 7.4
08/03:25pm 12.3 4.2 10.9 91 0.8 NW 44 87 24 47 1000.8 - 7.4
08/03:23pm 12.7 5.2 10.8 88 1.1 NW 41 87 22 47 1000.8 - 7.0
08/03:20pm 12.7 5.2 10.8 88 1.1 NW 41 87 22 47 1000.8 - 7.0
08/03:12pm 12.5 6.2 11.1 91 0.8 NNW 35 54 19 29 1000.9 - 6.2
08/03:09pm 12.5 6.2 11.1 91 0.8 NNW 35 54 19 29 1000.9 - 6.2
08/03:00pm 12.5 6.8 11.9 96 0.3 NNW 33 57 18 31 1000.9 998.0 5.6
08/02:54pm 12.3 6.8 12.0 98 0.2 NNW 32 50 17 27 1001.5 - 5.2
08/02:51pm 12.3 6.8 12.0 98 0.2 NNW 32 50 17 27 1001.5 - 5.2
08/02:49pm 12.1 6.6 11.8 98 0.2 NNW 32 46 17 25 1001.8 - 3.6
08/02:46pm 12.1 6.6 11.8 98 0.2 NNW 32 46 17 25 1001.8 - 3.6
08/02:30pm 12.5 5.8 11.1 91 0.8 NNW 37 48 20 26 1000.8 - 2.2
08/02:07pm 13.8 6.8 12.5 92 0.8 NNW 41 59 22 32 1000.9 - 2.2
08/02:04pm 13.8 6.8 12.5 92 0.8 NNW 41 59 22 32 1000.9 - 2.2
08/02:00pm 13.5 6.6 12.7 95 0.5 NNW 41 56 22 30 1000.8 - 2.2
08/01:50pm 12.8 7.5 12.6 99 0.1 NW 32 43 17 23 1001.3 - 2.2
08/01:47pm 12.8 7.5 12.6 99 0.1 NW 32 43 17 23 1001.3 - 2.2
08/01:35pm 12.1 4.3 11.9 99 0.1 NW 44 63 24 34 1002.5 - 1.8
08/01:32pm 12.1 4.3 11.9 99 0.1 NW 44 63 24 34 1002.5 - 1.8
08/01:30pm 12.0 3.7 11.5 97 0.3 NW 46 63 25 34 1002.5 - 1.8
08/01:29pm 12.4 4.2 11.8 96 0.3 NW 46 61 25 33 1002.5 - 1.4
08/01:26pm 12.4 4.2 11.8 96 0.3 NW 46 61 25 33 1002.5 - 1.4
08/01:17pm 13.0 5.0 12.5 97 0.3 NW 46 69 25 37 1002.4 - 1.2
08/01:14pm 13.0 5.0 12.5 97 0.3 NW 46 69 25 37 1002.4 - 1.2
08/01:00pm 11.9 3.5 11.1 95 0.4 NW 46 69 25 37 1002.7 - 1.0
08/12:45pm 12.7 2.2 10.4 86 1.3 NW 56 76 30 41 1002.5 - 0.0
08/12:42pm 12.7 2.2 10.4 86 1.3 NW 56 76 30 41 1002.5 - 0.0
08/12:30pm 13.9 4.2 8.9 72 2.7 NW 50 74 27 40 1002.0 - 0.0
08/12:00pm 14.9 4.8 8.8 67 3.3 NW 52 80 28 43 1001.9 999.1 0.0
08/11:30am 17.7 8.4 7.4 51 5.5 NW 46 74 25 40 1001.8 - 0.0
08/11:00am 17.1 8.3 5.7 47 5.9 NNW 41 82 22 44 1002.4 - 0.0
08/10:59am 17.2 8.8 5.5 46 6.1 NNW 39 82 21 44 1002.6 - 0.0
08/10:30am 17.5 9.1 5.8 46 6.1 NNW 39 61 21 33 1002.8 - 0.0
08/10:00am 16.6 9.3 5.3 47 5.8 N 33 59 18 32 1003.7 - 0.0
08/09:55am 16.7 9.2 4.4 44 6.2 N 33 56 18 30 1003.8 - 0.0
08/09:30am 16.9 11.6 5.2 46 6.0 N 22 37 12 20 1005.1 - 0.0
08/09:00am 15.9 10.3 3.7 44 6.1 N 22 46 12 25 1005.5 1002.8 0.0
08/08:30am 15.2 9.5 2.7 43 6.0 N 22 41 12 22 1006.7 - 0.0
08/08:00am 15.1 8.9 2.3 42 6.1 N 24 43 13 23 1007.0 - 0.0
08/07:30am 14.1 9.2 1.7 43 5.8 N 17 26 9 14 1007.9 - 0.0
08/07:00am 13.9 7.9 0.9 41 6.0 N 22 43 12 23 1008.5 - 0.0
08/06:30am 13.9 7.8 0.2 39 6.2 N 22 33 12 18 1008.7 - 0.0
08/06:00am 13.5 7.4 0.2 40 6.0 NNW 22 35 12 19 1008.9 1006.3 0.0
08/05:30am 13.7 7.4 -0.7 37 6.4 NNW 22 32 12 17 1008.7 - 0.0
08/05:00am 13.7 7.3 -1.5 35 6.6 NNW 22 32 12 17 1008.6 - 0.0
08/04:30am 13.7 7.7 -1.9 34 6.7 NW 20 28 11 15 1009.3 - 0.0
08/04:00am 13.4 7.0 -1.7 35 6.5 NW 22 35 12 19 1009.2 - 0.0
08/03:30am 13.4 6.5 -2.5 33 6.8 NW 24 35 13 19 1009.8 - 0.0
08/03:00am 13.6 5.6 -2.3 33 6.8 NW 30 41 16 22 1010.1 1007.5 0.0
08/02:30am 13.4 5.3 -2.9 32 6.9 NW 30 39 16 21 1010.8 - 0.0
08/02:00am 13.4 4.4 -2.9 32 6.9 NW 35 43 19 23 1011.1 - 0.0
08/01:30am 13.4 4.9 -2.9 32 6.9 NW 32 41 17 22 1011.7 - 0.0
08/01:00am 13.8 4.8 -3.0 31 7.1 NW 35 48 19 26 1012.1 - 0.0
08/12:30am 13.4 5.4 -2.5 33 6.8 NW 30 41 16 22 1012.8 - 0.0
08/12:00am 13.0 5.4 -2.1 35 6.5 NW 28 37 15 20 1013.2 1010.8 0.0
 
Date/Time
EDT
Temp
°C
App
Temp
°C
Dew
Point
°C
Rel
Hum
%
Delta-T
°C
Wind Press
QNH
hPa
Press
MSL
hPa
Rain since
9am
mm
Dir  Spd
km/h
Gust
km/h
Spd
kts
Gust
kts
07/11:30pm 12.8 6.0 -1.5 37 6.2 NW 24 30 13 16 1013.5 - 0.0
07/11:00pm 10.0 7.0 0.6 52 4.2 WNW 6 19 3 10 1013.9 - 0.0
07/10:30pm 8.8 6.6 1.0 58 3.4 NW 2 6 1 3 1014.0 - 0.0
07/10:00pm 12.0 8.9 1.6 49 4.8 NNE 7 13 4 7 1014.4 - 0.0
07/09:30pm 12.2 8.7 1.5 48 4.9 N 9 13 5 7 1014.5 - 0.0
07/09:00pm 13.1 9.2 1.1 44 5.5 N 11 17 6 9 1014.7 1012.3 0.0
07/08:30pm 12.2 9.3 1.2 47 5.0 N 6 9 3 5 1014.8 - 0.0
07/08:00pm 14.2 9.1 0.5 39 6.3 NW 17 22 9 12 1014.9 - 0.0
07/07:30pm 15.3 9.8 0.3 36 6.9 NW 19 26 10 14 1015.2 - 0.0
07/07:00pm 16.2 11.3 1.9 38 6.8 NW 17 26 9 14 1015.1 - 0.0
07/06:30pm 16.7 11.3 2.3 38 7.0 WNW 20 28 11 15 1015.2 - 0.0
07/06:00pm 17.2 12.4 2.4 37 7.2 WNW 17 26 9 14 1015.1 1012.6 0.0
07/05:30pm 17.7 12.5 2.5 36 7.4 NW 19 26 10 14 1015.1 - 0.0
07/05:00pm 18.3 13.3 4.5 40 7.1 WNW 20 32 11 17 1015.2 - 0.0
07/04:30pm 18.1 12.4 2.8 36 7.6 NW 22 32 12 17 1015.5 - 0.0
07/04:00pm 18.0 13.4 3.5 38 7.3 NNW 17 32 9 17 1015.6 - 0.0
07/03:30pm 18.7 12.8 3.7 37 7.6 NNW 24 35 13 19 1015.9 - 0.0
07/03:00pm 18.3 13.2 3.0 36 7.6 WNW 19 32 10 17 1016.2 1013.8 0.0
07/02:30pm 17.5 11.3 1.9 35 7.5 NW 24 39 13 21 1016.4 - 0.0
07/02:00pm 18.4 12.7 3.1 36 7.6 WNW 22 32 12 17 1016.3 - 0.0
07/01:30pm 18.0 12.6 2.7 36 7.5 W 20 30 11 16 1016.3 - 0.0
07/01:00pm 17.5 12.1 2.3 36 7.4 WNW 20 32 11 17 1016.7 - 0.0
07/12:30pm 17.5 12.0 0.6 32 8.0 W 19 28 10 15 1016.8 - 0.0
07/12:00pm 16.8 11.8 -0.9 30 8.0 W 15 26 8 14 1016.9 1014.5 0.0
07/11:30am 17.3 12.0 -0.9 29 8.3 W 17 37 9 20 1016.9 - 0.0
07/11:00am 16.6 14.3 5.6 48 5.7 ENE 7 17 4 9 1016.9 - 0.0
07/10:30am 15.1 12.9 6.1 55 4.7 N 7 15 4 8 1016.9 - 0.0
07/10:00am 14.5 12.2 5.6 55 4.5 ENE 7 15 4 8 1017.1 - 0.0
07/09:30am 13.6 11.5 5.7 59 4.0 ESE 6 13 3 7 1017.2 - 0.0
07/09:00am 12.3 10.0 5.9 65 3.2 SE 7 13 4 7 1017.1 1014.7 0.0
07/08:30am 11.7 9.5 3.5 57 3.9 NNW 4 7 2 4 1016.9 - 0.0
07/08:00am 10.5 8.5 6.1 74 2.2 N 6 9 3 5 1016.9 - 0.0
07/07:30am 9.2 8.3 9.1 99 0.1 SE 4 6 2 3 1016.9 - 0.0
07/07:00am 6.8 5.3 6.7 99 0.0 ESE 4 6 2 3 1016.7 - 0.0
07/06:30am 4.0 2.7 3.9 99 0.0 CALM 0 2 0 1 1016.2 - 0.0
07/06:00am 3.4 1.6 3.3 99 0.0 NW 2 4 1 2 1016.1 1013.7 0.0
07/05:30am 2.2 -0.6 2.1 99 0.0 NNW 6 7 3 4 1015.7 - 0.0
07/05:00am 3.1 0.5 3.0 99 0.0 NW 6 9 3 5 1015.4 - 0.0
07/04:30am 2.6 -0.1 2.5 99 0.0 W 6 7 3 4 1015.1 - 0.0
07/04:00am 3.0 1.5 2.9 99 0.0 CALM 0 0 0 0 1014.9 - 0.0
07/03:36am 2.5 0.5 2.4 99 0.0 E 2 4 1 2 1014.8 - 0.0
07/03:33am 2.5 0.5 2.4 99 0.0 E 2 4 1 2 1014.8 - 0.0
07/03:30am 3.4 1.2 3.3 99 0.0 E 4 4 2 2 1014.8 - 0.0
07/03:00am 3.2 1.3 3.1 99 0.0 W 2 4 1 2 1014.9 1012.5 0.0
07/02:53am 3.6 2.2 3.5 99 0.0 CALM 0 0 0 0 1014.9 - 0.0
07/02:50am 3.6 2.2 3.5 99 0.0 CALM 0 0 0 0 1014.9 - 0.0
07/02:36am 4.3 2.6 4.2 99 0.0 W 2 6 1 3 1015.2 - 0.0
07/02:33am 4.3 2.6 4.2 99 0.0 W 2 6 1 3 1015.2 - 0.0
07/02:30am 3.9 1.8 3.8 99 0.0 W 4 6 2 3 1015.2 - 0.0
07/02:00am 3.8 1.7 3.7 99 0.0 NNW 4 11 2 6 1015.7 - 0.0
07/01:30am 4.5 1.9 4.4 99 0.0 ESE 7 9 4 5 1016.1 - 0.0
07/01:18am 4.8 2.3 4.7 99 0.0 S 7 9 4 5 1016.3 - 0.0
07/01:15am 4.8 2.3 4.7 99 0.0 S 7 9 4 5 1016.3 - 0.0
07/01:00am 4.7 2.4 4.6 99 0.0 WSW 6 7 3 4 1016.2 - 0.0
07/12:30am 5.2 2.8 5.1 99 0.0 NW 7 7 4 4 1016.3 - 0.0
07/12:21am 6.4 4.4 6.3 99 0.0 NW 6 7 3 4 1016.3 - 0.0
07/12:18am 6.4 4.4 6.3 99 0.0 NW 6 7 3 4 1016.3 - 0.0
07/12:00am 6.5 4.5 6.4 99 0.0 WNW 6 7 3 4 1016.4 1014.0 0.0
 
Date/Time
EDT
Temp
°C
App
Temp
°C
Dew
Point
°C
Rel
Hum
%
Delta-T
°C
Wind Press
QNH
hPa
Press
MSL
hPa
Rain since
9am
mm
Dir  Spd
km/h
Gust
km/h
Spd
kts
Gust
kts
06/11:30pm 7.5 6.5 7.4 99 0.1 NNW 2 6 1 3 1016.8 - 0.0
06/11:00pm 8.5 7.0 8.4 99 0.1 E 6 7 3 4 1016.5 - 0.0
06/10:30pm 8.3 7.9 8.2 99 0.1 CALM 0 0 0 0 1016.7 - 0.0
06/10:11pm 8.7 7.2 8.6 99 0.1 WSW 6 6 3 3 1016.4 - 0.0
06/10:08pm 8.7 7.2 8.6 99 0.1 WSW 6 6 3 3 1016.4 - 0.0
06/10:00pm 8.9 7.5 8.8 99 0.1 SSW 6 7 3 4 1016.4 - 0.0
06/09:30pm 8.7 7.2 8.6 99 0.1 S 6 7 3 4 1016.2 - 0.0
06/09:00pm 8.9 7.9 8.8 99 0.1 WNW 4 6 2 3 1015.7 1013.3 0.0
06/08:30pm 9.5 8.1 8.7 95 0.4 S 6 7 3 4 1015.5 - 0.0
06/08:00pm 11.1 9.1 8.7 85 1.3 SSE 9 13 5 7 1015.3 - 0.0
06/07:30pm 13.6 11.7 8.9 73 2.5 SE 9 13 5 7 1015.1 - 0.0
06/07:00pm 15.9 12.3 3.0 42 6.3 WNW 11 17 6 9 1014.5 - 0.0
06/06:30pm 16.5 12.4 2.2 38 6.9 W 13 20 7 11 1014.5 - 0.0
06/06:00pm 16.7 11.8 2.3 38 7.0 WNW 17 28 9 15 1014.3 1011.8 0.0
06/05:30pm 17.9 13.9 2.6 36 7.5 W 13 26 7 14 1014.0 - 0.0
06/05:00pm 17.5 13.0 2.3 36 7.4 WSW 15 24 8 13 1013.8 - 0.0
06/04:30pm 17.6 13.6 3.1 38 7.2 W 13 24 7 13 1013.8 - 0.0
06/04:00pm 17.5 12.8 3.0 38 7.2 W 17 28 9 15 1014.0 - 0.0
06/03:30pm 17.8 13.2 6.7 48 5.9 W 20 33 11 18 1013.8 - 0.0
06/03:00pm 16.8 11.9 6.9 52 5.3 NW 22 33 12 18 1013.8 1011.3 0.0
06/02:30pm 16.3 11.8 6.2 51 5.3 WNW 19 30 10 16 1013.9 - 0.0
06/02:00pm 15.5 10.3 7.3 58 4.3 NW 24 35 13 19 1014.0 - 0.0
06/01:30pm 15.0 10.4 6.6 57 4.4 NW 20 30 11 16 1014.0 - 0.0
06/01:00pm 15.0 11.0 6.6 57 4.4 WNW 17 24 9 13 1014.4 - 0.0

Other Formats:

Comma delimited format used in spreadsheet applications
http://www.bom.gov.au/fwo/IDV60801/IDV60801.94905.axf

JavaScript Object Notation format (JSON) in row-major order
http://www.bom.gov.au/fwo/IDV60801/IDV60801.94905.json